Northolt, United Kingdom

1:02 PM BST on August 26, 2016 (GMT +0100)
Northolt Air Base | | Change Station

Elev 121 ft 51.55 °N, 0.42 °W | Updated 12 minutes ago

Clear
Clear
75 °F
Feels Like 75 °F
N
7
Wind Variable Wind from NW

Today
High -- | Low -- °F
--% Chance of Precip.
Yesterday
High -- | Low -- °F
Precip. -- in
Pressure 30.06 in
Visibility -9999.0 miles
Clouds
Dew Point 46 °F
Humidity 36%
Rainfall 0.00 in
Snow Depth Not available.
6:05 AM 8:00 PM
Waning Crescent, 35% visible
METAR EGWU 261150Z 32006KT CAVOK 24/08 Q1018 BLU NOSIG
Pressure 30.06 in
Visibility -9999.0 miles
Clouds
Dew Point 46 °F
Humidity 36%
Rainfall 0.00 in
Snow Depth Not available.
6:05 AM 8:00 PM
Waning Crescent, 35% visible
METAR EGWU 261150Z 32006KT CAVOK 24/08 Q1018 BLU NOSIG

10-Day Weather Forecast

×

Almanac

Astronomy

Aug. 26, 2016 Rise Set
Actual Time
Civil Twilight
Nautical Twilight
Astronomical Twilight
Moon
Length of Visible Light
Length of Day
Tomorrow will be .
, % of the Moon is Illuminated

Today's Extremes

Country Highs Country Lows

Community

WunderPhotos

Upload Photos

1,935,077 photos uploaded!

WunderBlog® & News

Nearby

Air Quality

  Air Quality AQ Index Pollutant
Not available.

Snow Depth

Station Depth Elevation

Earthquake Activity

City Distance Mag. Time & Date
Minimum magnitude displayed is 2.5.

Coastal Water Temperatures

Place Temperature

Stations

Nearby Weather Stations

Station Location Temp. Windchill Dew Point Humidity Wind Precip. Elev Updated Type